sensor_id;sensor_type;location;lat;lon;timestamp;P1;durP1;ratioP1;P2;durP2;ratioP2
16133;SDS011;8172;45.018;5.972;2023-06-26T00:00:36;8.03;;;6.00;;
16133;SDS011;8172;45.018;5.972;2023-06-26T00:05:44;5.60;;;5.10;;
16133;SDS011;8172;45.018;5.972;2023-06-26T00:10:54;7.37;;;6.57;;
16133;SDS011;8172;45.018;5.972;2023-06-26T00:16:01;7.07;;;6.07;;
16133;SDS011;8172;45.018;5.972;2023-06-26T00:21:09;6.87;;;5.87;;
16133;SDS011;8172;45.018;5.972;2023-06-26T00:26:16;6.80;;;5.83;;
16133;SDS011;8172;45.018;5.972;2023-06-26T00:31:24;7.77;;;5.80;;
16133;SDS011;8172;45.018;5.972;2023-06-26T00:36:33;8.70;;;6.30;;
16133;SDS011;8172;45.018;5.972;2023-06-26T00:41:40;6.27;;;5.67;;
16133;SDS011;8172;45.018;5.972;2023-06-26T00:46:48;8.03;;;5.70;;
16133;SDS011;8172;45.018;5.972;2023-06-26T00:51:56;6.73;;;5.40;;
16133;SDS011;8172;45.018;5.972;2023-06-26T00:57:04;7.80;;;5.57;;
16133;SDS011;8172;45.018;5.972;2023-06-26T01:02:11;6.23;;;5.60;;
16133;SDS011;8172;45.018;5.972;2023-06-26T01:07:21;6.60;;;5.63;;
16133;SDS011;8172;45.018;5.972;2023-06-26T01:12:31;8.43;;;5.50;;
16133;SDS011;8172;45.018;5.972;2023-06-26T01:17:39;6.87;;;6.00;;
16133;SDS011;8172;45.018;5.972;2023-06-26T01:22:56;7.63;;;5.83;;
16133;SDS011;8172;45.018;5.972;2023-06-26T01:28:01;7.97;;;6.43;;
16133;SDS011;8172;45.018;5.972;2023-06-26T01:33:12;9.07;;;5.80;;
16133;SDS011;8172;45.018;5.972;2023-06-26T01:38:20;7.43;;;5.90;;
16133;SDS011;8172;45.018;5.972;2023-06-26T01:48:39;6.40;;;5.80;;
16133;SDS011;8172;45.018;5.972;2023-06-26T01:53:50;6.90;;;5.83;;
16133;SDS011;8172;45.018;5.972;2023-06-26T01:58:59;6.40;;;5.53;;
16133;SDS011;8172;45.018;5.972;2023-06-26T02:04:08;6.87;;;5.80;;
16133;SDS011;8172;45.018;5.972;2023-06-26T02:09:15;6.60;;;5.90;;
16133;SDS011;8172;45.018;5.972;2023-06-26T02:14:23;9.47;;;5.90;;
16133;SDS011;8172;45.018;5.972;2023-06-26T02:19:32;6.17;;;5.57;;
16133;SDS011;8172;45.018;5.972;2023-06-26T02:24:41;6.73;;;5.87;;
16133;SDS011;8172;45.018;5.972;2023-06-26T02:29:50;6.47;;;5.80;;
16133;SDS011;8172;45.018;5.972;2023-06-26T02:35:02;6.93;;;5.90;;
16133;SDS011;8172;45.018;5.972;2023-06-26T02:40:10;6.80;;;5.70;;
16133;SDS011;8172;45.018;5.972;2023-06-26T02:45:17;6.17;;;5.30;;
16133;SDS011;8172;45.018;5.972;2023-06-26T02:50:25;7.87;;;6.00;;
16133;SDS011;8172;45.018;5.972;2023-06-26T02:55:34;6.40;;;5.67;;
16133;SDS011;8172;45.018;5.972;2023-06-26T03:00:44;7.03;;;5.70;;
16133;SDS011;8172;45.018;5.972;2023-06-26T03:05:53;7.33;;;5.30;;
16133;SDS011;8172;45.018;5.972;2023-06-26T03:11:02;6.70;;;5.20;;
16133;SDS011;8172;45.018;5.972;2023-06-26T03:16:10;6.27;;;5.30;;
16133;SDS011;8172;45.018;5.972;2023-06-26T03:21:18;8.50;;;5.63;;
16133;SDS011;8172;45.018;5.972;2023-06-26T03:26:25;5.80;;;5.20;;
16133;SDS011;8172;45.018;5.972;2023-06-26T03:31:35;6.77;;;5.50;;
16133;SDS011;8172;45.018;5.972;2023-06-26T03:36:42;8.43;;;5.80;;
16133;SDS011;8172;45.018;5.972;2023-06-26T03:41:50;6.77;;;5.90;;
16133;SDS011;8172;45.018;5.972;2023-06-26T03:46:59;6.70;;;6.00;;
16133;SDS011;8172;45.018;5.972;2023-06-26T03:52:08;6.77;;;5.77;;
16133;SDS011;8172;45.018;5.972;2023-06-26T03:57:16;7.17;;;5.37;;
16133;SDS011;8172;45.018;5.972;2023-06-26T04:02:25;7.20;;;6.03;;
16133;SDS011;8172;45.018;5.972;2023-06-26T04:07:32;6.30;;;5.57;;
16133;SDS011;8172;45.018;5.972;2023-06-26T04:12:42;6.00;;;5.20;;
16133;SDS011;8172;45.018;5.972;2023-06-26T04:17:54;6.70;;;5.83;;
16133;SDS011;8172;45.018;5.972;2023-06-26T04:23:02;6.43;;;5.50;;
16133;SDS011;8172;45.018;5.972;2023-06-26T04:28:11;6.43;;;5.53;;
16133;SDS011;8172;45.018;5.972;2023-06-26T04:33:22;6.87;;;5.60;;
16133;SDS011;8172;45.018;5.972;2023-06-26T04:38:32;6.90;;;5.37;;
16133;SDS011;8172;45.018;5.972;2023-06-26T04:43:40;7.60;;;5.60;;
16133;SDS011;8172;45.018;5.972;2023-06-26T04:48:47;6.80;;;6.03;;
16133;SDS011;8172;45.018;5.972;2023-06-26T04:53:54;6.30;;;5.30;;
16133;SDS011;8172;45.018;5.972;2023-06-26T04:59:02;6.00;;;5.40;;
16133;SDS011;8172;45.018;5.972;2023-06-26T05:04:10;7.60;;;5.63;;
16133;SDS011;8172;45.018;5.972;2023-06-26T05:09:18;6.73;;;5.70;;
16133;SDS011;8172;45.018;5.972;2023-06-26T05:14:25;6.53;;;5.70;;
16133;SDS011;8172;45.018;5.972;2023-06-26T05:19:33;7.87;;;5.80;;
16133;SDS011;8172;45.018;5.972;2023-06-26T05:24:41;6.90;;;5.77;;
16133;SDS011;8172;45.018;5.972;2023-06-26T05:29:50;9.53;;;6.07;;
16133;SDS011;8172;45.018;5.972;2023-06-26T05:34:59;6.40;;;5.70;;
16133;SDS011;8172;45.018;5.972;2023-06-26T05:40:09;6.97;;;6.00;;
16133;SDS011;8172;45.018;5.972;2023-06-26T05:45:17;7.20;;;5.80;;
16133;SDS011;8172;45.018;5.972;2023-06-26T05:50:24;8.40;;;6.07;;
16133;SDS011;8172;45.018;5.972;2023-06-26T05:55:32;6.47;;;5.73;;
16133;SDS011;8172;45.018;5.972;2023-06-26T06:00:42;6.47;;;5.77;;
16133;SDS011;8172;45.018;5.972;2023-06-26T06:05:50;7.70;;;5.97;;
16133;SDS011;8172;45.018;5.972;2023-06-26T06:10:57;7.70;;;5.63;;
16133;SDS011;8172;45.018;5.972;2023-06-26T06:16:07;9.33;;;5.60;;
16133;SDS011;8172;45.018;5.972;2023-06-26T06:21:15;7.13;;;5.67;;
16133;SDS011;8172;45.018;5.972;2023-06-26T06:26:22;7.20;;;5.83;;
16133;SDS011;8172;45.018;5.972;2023-06-26T06:31:30;6.47;;;5.70;;
16133;SDS011;8172;45.018;5.972;2023-06-26T06:36:38;7.30;;;6.43;;
16133;SDS011;8172;45.018;5.972;2023-06-26T06:41:45;6.67;;;5.93;;
16133;SDS011;8172;45.018;5.972;2023-06-26T06:46:54;7.03;;;6.10;;
16133;SDS011;8172;45.018;5.972;2023-06-26T06:52:02;6.97;;;6.10;;
16133;SDS011;8172;45.018;5.972;2023-06-26T06:57:10;7.17;;;5.67;;
16133;SDS011;8172;45.018;5.972;2023-06-26T07:02:17;6.43;;;5.77;;
16133;SDS011;8172;45.018;5.972;2023-06-26T07:07:28;6.90;;;6.00;;
16133;SDS011;8172;45.018;5.972;2023-06-26T07:12:36;7.37;;;6.23;;
16133;SDS011;8172;45.018;5.972;2023-06-26T07:17:44;6.20;;;5.50;;
16133;SDS011;8172;45.018;5.972;2023-06-26T07:22:52;9.00;;;6.17;;
16133;SDS011;8172;45.018;5.972;2023-06-26T07:28:01;6.47;;;5.77;;
16133;SDS011;8172;45.018;5.972;2023-06-26T07:33:08;6.90;;;5.97;;
16133;SDS011;8172;45.018;5.972;2023-06-26T07:38:17;6.87;;;5.83;;
16133;SDS011;8172;45.018;5.972;2023-06-26T07:43:25;7.70;;;5.67;;
16133;SDS011;8172;45.018;5.972;2023-06-26T07:48:33;6.60;;;5.90;;
16133;SDS011;8172;45.018;5.972;2023-06-26T07:53:40;7.97;;;6.23;;
16133;SDS011;8172;45.018;5.972;2023-06-26T07:58:47;7.67;;;6.37;;
16133;SDS011;8172;45.018;5.972;2023-06-26T08:03:54;6.67;;;5.93;;
16133;SDS011;8172;45.018;5.972;2023-06-26T08:09:02;6.93;;;6.20;;
16133;SDS011;8172;45.018;5.972;2023-06-26T08:14:10;8.70;;;5.60;;
16133;SDS011;8172;45.018;5.972;2023-06-26T08:19:17;6.73;;;5.73;;
16133;SDS011;8172;45.018;5.972;2023-06-26T08:24:25;7.00;;;6.10;;
16133;SDS011;8172;45.018;5.972;2023-06-26T08:29:33;12.70;;;5.90;;
16133;SDS011;8172;45.018;5.972;2023-06-26T08:34:42;6.70;;;5.67;;
16133;SDS011;8172;45.018;5.972;2023-06-26T08:39:51;8.13;;;6.10;;
16133;SDS011;8172;45.018;5.972;2023-06-26T08:44:58;7.17;;;6.13;;
16133;SDS011;8172;45.018;5.972;2023-06-26T08:50:08;7.30;;;6.60;;
16133;SDS011;8172;45.018;5.972;2023-06-26T08:55:17;8.13;;;6.73;;
16133;SDS011;8172;45.018;5.972;2023-06-26T09:00:28;7.87;;;6.10;;
16133;SDS011;8172;45.018;5.972;2023-06-26T09:05:36;9.33;;;6.50;;
16133;SDS011;8172;45.018;5.972;2023-06-26T09:10:44;9.00;;;6.10;;
16133;SDS011;8172;45.018;5.972;2023-06-26T09:15:52;7.30;;;6.40;;
16133;SDS011;8172;45.018;5.972;2023-06-26T09:21:06;7.00;;;6.30;;
16133;SDS011;8172;45.018;5.972;2023-06-26T09:26:11;8.57;;;6.13;;
16133;SDS011;8172;45.018;5.972;2023-06-26T09:31:20;6.80;;;6.10;;
16133;SDS011;8172;45.018;5.972;2023-06-26T09:36:31;8.50;;;6.60;;
16133;SDS011;8172;45.018;5.972;2023-06-26T09:41:43;8.27;;;6.20;;
16133;SDS011;8172;45.018;5.972;2023-06-26T09:46:51;7.07;;;6.37;;
16133;SDS011;8172;45.018;5.972;2023-06-26T09:52:00;7.47;;;6.03;;
16133;SDS011;8172;45.018;5.972;2023-06-26T09:57:08;7.87;;;6.53;;
16133;SDS011;8172;45.018;5.972;2023-06-26T10:02:17;6.80;;;6.07;;
16133;SDS011;8172;45.018;5.972;2023-06-26T10:07:26;8.03;;;6.17;;
16133;SDS011;8172;45.018;5.972;2023-06-26T10:12:33;8.87;;;6.57;;
16133;SDS011;8172;45.018;5.972;2023-06-26T10:17:41;8.10;;;6.35;;
16133;SDS011;8172;45.018;5.972;2023-06-26T10:22:49;8.10;;;6.80;;
16133;SDS011;8172;45.018;5.972;2023-06-26T10:27:58;8.27;;;6.60;;
16133;SDS011;8172;45.018;5.972;2023-06-26T10:33:06;8.93;;;6.90;;
16133;SDS011;8172;45.018;5.972;2023-06-26T10:38:16;8.83;;;7.47;;
16133;SDS011;8172;45.018;5.972;2023-06-26T10:43:29;8.60;;;6.80;;
16133;SDS011;8172;45.018;5.972;2023-06-26T10:48:44;7.77;;;6.97;;
16133;SDS011;8172;45.018;5.972;2023-06-26T10:53:49;8.35;;;7.20;;
16133;SDS011;8172;45.018;5.972;2023-06-26T10:58:55;8.58;;;7.12;;
16133;SDS011;8172;45.018;5.972;2023-06-26T11:04:06;9.13;;;7.62;;
16133;SDS011;8172;45.018;5.972;2023-06-26T11:09:17;8.60;;;7.23;;
16133;SDS011;8172;45.018;5.972;2023-06-26T11:14:26;7.87;;;7.07;;
16133;SDS011;8172;45.018;5.972;2023-06-26T11:19:34;8.50;;;7.37;;
16133;SDS011;8172;45.018;5.972;2023-06-26T11:24:43;10.60;;;7.87;;
16133;SDS011;8172;45.018;5.972;2023-06-26T11:29:51;8.43;;;6.97;;
16133;SDS011;8172;45.018;5.972;2023-06-26T11:34:59;8.68;;;7.45;;
16133;SDS011;8172;45.018;5.972;2023-06-26T11:45:16;8.18;;;7.37;;
16133;SDS011;8172;45.018;5.972;2023-06-26T11:50:23;7.90;;;7.10;;
16133;SDS011;8172;45.018;5.972;2023-06-26T11:55:39;8.10;;;6.73;;
16133;SDS011;8172;45.018;5.972;2023-06-26T12:00:42;11.78;;;7.20;;
16133;SDS011;8172;45.018;5.972;2023-06-26T12:05:49;7.95;;;7.15;;
16133;SDS011;8172;45.018;5.972;2023-06-26T12:10:58;8.13;;;7.33;;
16133;SDS011;8172;45.018;5.972;2023-06-26T12:16:05;7.90;;;7.10;;
16133;SDS011;8172;45.018;5.972;2023-06-26T12:26:25;10.70;;;7.05;;
16133;SDS011;8172;45.018;5.972;2023-06-26T12:31:34;8.30;;;7.40;;
16133;SDS011;8172;45.018;5.972;2023-06-26T12:36:42;8.83;;;6.87;;
16133;SDS011;8172;45.018;5.972;2023-06-26T12:41:53;8.20;;;7.28;;
16133;SDS011;8172;45.018;5.972;2023-06-26T12:47:06;8.70;;;7.12;;
16133;SDS011;8172;45.018;5.972;2023-06-26T12:52:16;9.25;;;7.22;;
16133;SDS011;8172;45.018;5.972;2023-06-26T12:57:27;7.95;;;7.15;;
16133;SDS011;8172;45.018;5.972;2023-06-26T13:02:34;8.50;;;7.05;;
16133;SDS011;8172;45.018;5.972;2023-06-26T13:07:44;8.05;;;7.25;;
16133;SDS011;8172;45.018;5.972;2023-06-26T13:12:51;8.13;;;7.33;;
16133;SDS011;8172;45.018;5.972;2023-06-26T13:17:59;9.55;;;7.90;;
16133;SDS011;8172;45.018;5.972;2023-06-26T13:23:06;7.62;;;6.83;;
16133;SDS011;8172;45.018;5.972;2023-06-26T13:28:14;9.08;;;7.33;;
16133;SDS011;8172;45.018;5.972;2023-06-26T13:33:21;8.90;;;7.10;;
16133;SDS011;8172;45.018;5.972;2023-06-26T13:38:32;8.38;;;7.45;;
16133;SDS011;8172;45.018;5.972;2023-06-26T13:43:39;9.25;;;7.30;;
16133;SDS011;8172;45.018;5.972;2023-06-26T13:48:47;8.43;;;7.25;;
16133;SDS011;8172;45.018;5.972;2023-06-26T13:53:56;7.80;;;6.92;;
16133;SDS011;8172;45.018;5.972;2023-06-26T13:59:06;9.28;;;7.55;;
16133;SDS011;8172;45.018;5.972;2023-06-26T14:04:13;9.03;;;7.22;;
16133;SDS011;8172;45.018;5.972;2023-06-26T14:09:20;8.18;;;7.05;;
16133;SDS011;8172;45.018;5.972;2023-06-26T14:14:28;7.60;;;6.85;;
16133;SDS011;8172;45.018;5.972;2023-06-26T14:19:35;10.63;;;7.80;;
16133;SDS011;8172;45.018;5.972;2023-06-26T14:24:43;8.70;;;7.35;;
16133;SDS011;8172;45.018;5.972;2023-06-26T14:29:50;8.00;;;7.20;;
16133;SDS011;8172;45.018;5.972;2023-06-26T14:34:58;8.40;;;7.60;;
16133;SDS011;8172;45.018;5.972;2023-06-26T14:40:06;11.05;;;6.92;;
16133;SDS011;8172;45.018;5.972;2023-06-26T14:45:14;7.90;;;7.10;;
16133;SDS011;8172;45.018;5.972;2023-06-26T14:50:22;8.58;;;7.17;;
16133;SDS011;8172;45.018;5.972;2023-06-26T14:55:30;9.20;;;7.20;;
16133;SDS011;8172;45.018;5.972;2023-06-26T15:00:38;9.40;;;6.90;;
16133;SDS011;8172;45.018;5.972;2023-06-26T15:05:45;9.23;;;8.00;;
16133;SDS011;8172;45.018;5.972;2023-06-26T15:10:52;8.53;;;7.00;;
16133;SDS011;8172;45.018;5.972;2023-06-26T15:15:59;8.93;;;6.95;;
16133;SDS011;8172;45.018;5.972;2023-06-26T15:21:07;9.20;;;7.30;;
16133;SDS011;8172;45.018;5.972;2023-06-26T15:26:14;9.03;;;7.30;;
16133;SDS011;8172;45.018;5.972;2023-06-26T15:31:22;8.70;;;7.22;;
16133;SDS011;8172;45.018;5.972;2023-06-26T15:36:30;9.13;;;6.95;;
16133;SDS011;8172;45.018;5.972;2023-06-26T15:41:37;8.58;;;7.15;;
16133;SDS011;8172;45.018;5.972;2023-06-26T15:46:45;8.93;;;7.58;;
16133;SDS011;8172;45.018;5.972;2023-06-26T15:51:52;8.83;;;7.50;;
16133;SDS011;8172;45.018;5.972;2023-06-26T15:56:59;8.35;;;7.55;;
16133;SDS011;8172;45.018;5.972;2023-06-26T16:02:07;9.60;;;7.60;;
16133;SDS011;8172;45.018;5.972;2023-06-26T16:07:14;11.10;;;7.53;;
16133;SDS011;8172;45.018;5.972;2023-06-26T16:12:21;9.40;;;7.85;;
16133;SDS011;8172;45.018;5.972;2023-06-26T16:17:29;8.35;;;7.50;;
16133;SDS011;8172;45.018;5.972;2023-06-26T16:22:37;7.97;;;7.10;;
16133;SDS011;8172;45.018;5.972;2023-06-26T16:27:51;8.05;;;7.22;;
16133;SDS011;8172;45.018;5.972;2023-06-26T16:32:58;10.48;;;7.60;;
16133;SDS011;8172;45.018;5.972;2023-06-26T16:38:06;8.30;;;7.40;;
16133;SDS011;8172;45.018;5.972;2023-06-26T16:43:14;8.13;;;7.33;;
16133;SDS011;8172;45.018;5.972;2023-06-26T16:48:22;8.85;;;7.30;;
16133;SDS011;8172;45.018;5.972;2023-06-26T16:53:30;8.35;;;7.47;;
16133;SDS011;8172;45.018;5.972;2023-06-26T16:58:38;9.43;;;7.87;;
16133;SDS011;8172;45.018;5.972;2023-06-26T17:03:45;9.48;;;7.47;;
16133;SDS011;8172;45.018;5.972;2023-06-26T17:08:53;9.33;;;7.67;;
16133;SDS011;8172;45.018;5.972;2023-06-26T17:14:01;9.70;;;7.50;;
16133;SDS011;8172;45.018;5.972;2023-06-26T17:19:09;8.60;;;7.33;;
16133;SDS011;8172;45.018;5.972;2023-06-26T17:24:17;9.20;;;7.50;;
16133;SDS011;8172;45.018;5.972;2023-06-26T17:29:25;14.63;;;8.57;;
16133;SDS011;8172;45.018;5.972;2023-06-26T17:34:32;9.63;;;7.17;;
16133;SDS011;8172;45.018;5.972;2023-06-26T17:39:40;8.47;;;7.53;;
16133;SDS011;8172;45.018;5.972;2023-06-26T17:44:47;9.20;;;7.17;;
16133;SDS011;8172;45.018;5.972;2023-06-26T17:49:55;13.50;;;7.90;;
16133;SDS011;8172;45.018;5.972;2023-06-26T17:55:03;8.70;;;7.80;;
16133;SDS011;8172;45.018;5.972;2023-06-26T18:00:11;9.50;;;8.17;;
16133;SDS011;8172;45.018;5.972;2023-06-26T18:05:19;10.97;;;7.80;;
16133;SDS011;8172;45.018;5.972;2023-06-26T18:10:26;8.63;;;7.67;;
16133;SDS011;8172;45.018;5.972;2023-06-26T18:15:33;10.83;;;8.27;;
16133;SDS011;8172;45.018;5.972;2023-06-26T18:20:41;10.23;;;7.30;;
16133;SDS011;8172;45.018;5.972;2023-06-26T18:25:48;7.87;;;7.07;;
16133;SDS011;8172;45.018;5.972;2023-06-26T18:30:56;8.77;;;7.43;;
16133;SDS011;8172;45.018;5.972;2023-06-26T18:36:04;10.47;;;7.80;;
16133;SDS011;8172;45.018;5.972;2023-06-26T18:41:13;8.37;;;7.57;;
16133;SDS011;8172;45.018;5.972;2023-06-26T18:46:21;9.17;;;7.70;;
16133;SDS011;8172;45.018;5.972;2023-06-26T18:51:30;10.90;;;8.00;;
16133;SDS011;8172;45.018;5.972;2023-06-26T18:56:39;10.33;;;7.97;;
16133;SDS011;8172;45.018;5.972;2023-06-26T19:01:48;9.53;;;7.50;;
16133;SDS011;8172;45.018;5.972;2023-06-26T19:06:56;9.77;;;7.13;;
16133;SDS011;8172;45.018;5.972;2023-06-26T19:12:07;8.10;;;7.27;;
16133;SDS011;8172;45.018;5.972;2023-06-26T19:17:15;10.20;;;8.07;;
16133;SDS011;8172;45.018;5.972;2023-06-26T19:22:24;8.90;;;7.27;;
16133;SDS011;8172;45.018;5.972;2023-06-26T19:27:34;10.80;;;7.77;;
16133;SDS011;8172;45.018;5.972;2023-06-26T19:32:41;8.80;;;7.70;;
16133;SDS011;8172;45.018;5.972;2023-06-26T19:37:50;9.37;;;7.70;;
16133;SDS011;8172;45.018;5.972;2023-06-26T19:42:59;8.93;;;7.43;;
16133;SDS011;8172;45.018;5.972;2023-06-26T19:48:08;9.90;;;8.30;;
16133;SDS011;8172;45.018;5.972;2023-06-26T19:53:16;9.70;;;7.90;;
16133;SDS011;8172;45.018;5.972;2023-06-26T19:58:24;9.63;;;7.63;;
16133;SDS011;8172;45.018;5.972;2023-06-26T20:03:32;10.40;;;7.13;;
16133;SDS011;8172;45.018;5.972;2023-06-26T20:08:39;10.53;;;7.30;;
16133;SDS011;8172;45.018;5.972;2023-06-26T20:13:47;8.67;;;7.30;;
16133;SDS011;8172;45.018;5.972;2023-06-26T20:18:54;8.53;;;7.40;;
16133;SDS011;8172;45.018;5.972;2023-06-26T20:24:02;8.47;;;7.50;;
16133;SDS011;8172;45.018;5.972;2023-06-26T20:29:12;8.60;;;7.60;;
16133;SDS011;8172;45.018;5.972;2023-06-26T20:34:20;11.10;;;7.67;;
16133;SDS011;8172;45.018;5.972;2023-06-26T20:39:27;7.83;;;7.03;;
16133;SDS011;8172;45.018;5.972;2023-06-26T20:44:35;10.27;;;7.93;;
16133;SDS011;8172;45.018;5.972;2023-06-26T20:49:42;8.67;;;7.40;;
16133;SDS011;8172;45.018;5.972;2023-06-26T20:54:50;9.60;;;7.63;;
16133;SDS011;8172;45.018;5.972;2023-06-26T20:59:58;9.83;;;7.70;;
16133;SDS011;8172;45.018;5.972;2023-06-26T21:05:11;7.93;;;7.13;;
16133;SDS011;8172;45.018;5.972;2023-06-26T21:10:18;8.37;;;7.50;;
16133;SDS011;8172;45.018;5.972;2023-06-26T21:15:25;8.80;;;7.47;;
16133;SDS011;8172;45.018;5.972;2023-06-26T21:20:34;9.63;;;7.57;;
16133;SDS011;8172;45.018;5.972;2023-06-26T21:25:41;9.70;;;7.57;;
16133;SDS011;8172;45.018;5.972;2023-06-26T21:30:48;9.57;;;7.07;;
16133;SDS011;8172;45.018;5.972;2023-06-26T21:35:56;11.33;;;7.60;;
16133;SDS011;8172;45.018;5.972;2023-06-26T21:41:03;9.73;;;7.30;;
16133;SDS011;8172;45.018;5.972;2023-06-26T21:46:14;10.10;;;7.60;;
16133;SDS011;8172;45.018;5.972;2023-06-26T21:51:22;11.47;;;8.10;;
16133;SDS011;8172;45.018;5.972;2023-06-26T21:56:30;9.50;;;7.20;;
16133;SDS011;8172;45.018;5.972;2023-06-26T22:01:38;8.13;;;6.93;;
16133;SDS011;8172;45.018;5.972;2023-06-26T22:06:46;11.03;;;7.93;;
16133;SDS011;8172;45.018;5.972;2023-06-26T22:11:53;8.03;;;7.07;;
16133;SDS011;8172;45.018;5.972;2023-06-26T22:17:01;8.63;;;7.50;;
16133;SDS011;8172;45.018;5.972;2023-06-26T22:22:08;8.50;;;7.60;;
16133;SDS011;8172;45.018;5.972;2023-06-26T22:27:16;10.27;;;7.63;;
16133;SDS011;8172;45.018;5.972;2023-06-26T22:32:24;9.67;;;7.57;;
16133;SDS011;8172;45.018;5.972;2023-06-26T22:37:31;9.40;;;7.80;;
16133;SDS011;8172;45.018;5.972;2023-06-26T22:42:39;9.90;;;8.30;;
16133;SDS011;8172;45.018;5.972;2023-06-26T22:47:48;10.63;;;8.13;;
16133;SDS011;8172;45.018;5.972;2023-06-26T22:52:55;9.20;;;7.70;;
16133;SDS011;8172;45.018;5.972;2023-06-26T22:58:04;9.17;;;7.50;;
16133;SDS011;8172;45.018;5.972;2023-06-26T23:03:11;9.37;;;7.17;;
16133;SDS011;8172;45.018;5.972;2023-06-26T23:08:19;8.90;;;7.17;;
16133;SDS011;8172;45.018;5.972;2023-06-26T23:13:27;9.27;;;7.30;;
16133;SDS011;8172;45.018;5.972;2023-06-26T23:18:36;8.53;;;7.10;;
16133;SDS011;8172;45.018;5.972;2023-06-26T23:23:43;8.63;;;6.80;;
16133;SDS011;8172;45.018;5.972;2023-06-26T23:28:51;9.23;;;7.00;;
16133;SDS011;8172;45.018;5.972;2023-06-26T23:33:59;8.97;;;6.73;;
16133;SDS011;8172;45.018;5.972;2023-06-26T23:39:09;9.20;;;6.80;;
16133;SDS011;8172;45.018;5.972;2023-06-26T23:44:16;8.07;;;6.47;;
16133;SDS011;8172;45.018;5.972;2023-06-26T23:49:25;8.73;;;7.43;;
16133;SDS011;8172;45.018;5.972;2023-06-26T23:54:33;8.67;;;6.83;;
16133;SDS011;8172;45.018;5.972;2023-06-26T23:59:41;8.60;;;6.80;;
